createdAt,value
2022-12-06T00:04:23.480Z,98655.19
2022-12-06T00:09:29.641Z,98656.03
2022-12-06T00:14:32.372Z,98653.38
2022-12-06T00:19:35.137Z,98649.22
2022-12-06T00:24:39.515Z,98641.56
2022-12-06T00:29:42.236Z,98640.50
2022-12-06T00:34:45.041Z,98636.94
2022-12-06T00:39:49.121Z,98635.88
2022-12-06T00:44:51.824Z,98634.31
2022-12-06T00:49:54.704Z,98629.06
2022-12-06T00:54:58.844Z,98622.25
2022-12-06T01:00:01.942Z,98619.47
2022-12-06T01:05:05.546Z,98618.56
2022-12-06T01:10:10.210Z,98624.66
2022-12-06T01:15:13.178Z,98623.03
2022-12-06T01:20:15.905Z,98620.41
2022-12-06T01:25:20.075Z,98624.88
2022-12-06T01:30:22.910Z,98629.34
2022-12-06T01:35:25.784Z,98632.75
2022-12-06T01:40:30.157Z,98632.75
2022-12-06T01:45:33.225Z,98631.97
2022-12-06T01:50:39.471Z,98622.47
2022-12-06T01:55:43.748Z,98619.75
2022-12-06T02:00:46.622Z,98626.84
2022-12-06T02:05:49.686Z,98625.91
2022-12-06T02:10:53.975Z,98626.84
2022-12-06T02:16:04.967Z,98624.22
2022-12-06T02:21:17.124Z,98620.81
2022-12-06T02:26:29.901Z,98612.94
2022-12-06T02:31:41.122Z,98625.09
2022-12-06T02:36:50.062Z,98624.16
2022-12-06T02:42:00.058Z,98618.91
2022-12-06T02:47:08.570Z,98619.88
2022-12-06T02:52:12.082Z,98606.69
2022-12-06T02:57:14.978Z,98603.97
2022-12-06T03:02:19.577Z,98598.09
2022-12-06T03:07:43.244Z,98600.59
2022-12-06T03:12:56.398Z,98604.13
2022-12-06T03:18:07.389Z,98611.09
2022-12-06T03:23:14.598Z,98601.50
2022-12-06T03:28:20.020Z,98592.84
2022-12-06T03:33:27.577Z,98590.22
2022-12-06T03:38:36.420Z,98582.44
2022-12-06T03:43:39.263Z,98581.66
2022-12-06T03:48:47.515Z,98579.88
2022-12-06T03:53:53.671Z,98577.34
2022-12-06T03:58:56.469Z,98567.75
2022-12-06T04:04:01.196Z,98563.47
2022-12-06T04:09:17.928Z,98565.97
2022-12-06T04:14:20.737Z,98571.22
2022-12-06T04:19:24.892Z,98565.75
2022-12-06T04:24:27.641Z,98564.84
2022-12-06T04:29:48.335Z,98564.13
2022-12-06T04:35:09.868Z,98565.03
2022-12-06T04:40:12.768Z,98562.25
2022-12-06T04:45:15.595Z,98559.63
2022-12-06T04:50:19.817Z,98564.88
2022-12-06T04:55:22.663Z,98563.28
2022-12-06T05:00:25.572Z,98562.34
2022-12-06T05:05:30.403Z,98557.94
2022-12-06T05:10:33.629Z,98554.38
2022-12-06T05:15:36.400Z,98556.09
2022-12-06T05:20:40.620Z,98556.84
2022-12-06T05:25:43.761Z,98556.94
2022-12-06T05:30:46.609Z,98560.34
2022-12-06T05:35:50.964Z,98558.50
2022-12-06T05:40:53.723Z,98551.53
2022-12-06T05:45:56.870Z,98562.88
2022-12-06T05:51:01.044Z,98566.53
2022-12-06T05:56:08.620Z,98568.22
2022-12-06T06:01:11.455Z,98569.16
2022-12-06T06:06:15.788Z,98569.00
2022-12-06T06:11:18.638Z,98566.44
2022-12-06T06:16:21.891Z,98560.19
2022-12-06T06:21:26.400Z,98556.81
2022-12-06T06:26:29.769Z,98561.06
2022-12-06T06:31:32.697Z,98568.94
2022-12-06T06:36:41.069Z,98575.91
2022-12-06T06:41:46.910Z,98577.66
2022-12-06T06:46:49.905Z,98579.44
2022-12-06T06:51:54.225Z,98585.53
2022-12-06T06:56:57.921Z,98583.63
2022-12-06T07:02:01.443Z,98587.19
2022-12-06T07:07:06.421Z,98591.41
2022-12-06T07:12:09.953Z,98596.63
2022-12-06T07:17:12.843Z,98593.06
2022-12-06T07:22:17.099Z,98588.50
2022-12-06T07:27:20.095Z,98590.03
2022-12-06T07:32:23.380Z,98604.03
2022-12-06T07:37:27.489Z,98601.34
2022-12-06T07:42:48.780Z,98589.78
2022-12-06T07:47:51.740Z,98589.63
2022-12-06T07:53:00.025Z,98587.69
2022-12-06T07:58:02.887Z,98594.47
2022-12-06T08:03:06.543Z,98582.81
2022-12-06T08:08:11.441Z,98586.00
2022-12-06T08:13:14.407Z,98585.00
2022-12-06T08:18:17.265Z,98587.34
2022-12-06T08:23:21.472Z,98594.19
2022-12-06T08:28:29.003Z,98598.47
2022-12-06T08:33:33.809Z,98596.69
2022-12-06T08:38:39.109Z,98603.88
2022-12-06T08:43:42.498Z,98596.69
2022-12-06T08:48:46.241Z,98606.09
2022-12-06T08:53:50.595Z,98610.38
2022-12-06T08:58:55.471Z,98608.59
2022-12-06T09:03:59.894Z,98614.63
2022-12-06T09:09:04.740Z,98614.19
2022-12-06T09:14:09.165Z,98610.78
2022-12-06T09:19:12.535Z,98617.56
2022-12-06T09:24:18.768Z,98620.81
2022-12-06T09:29:23.521Z,98631.19
2022-12-06T09:34:27.085Z,98627.72
2022-12-06T09:39:35.696Z,98629.88
2022-12-06T09:45:15.381Z,98638.16
2022-12-06T09:50:29.454Z,98632.47
2022-12-06T09:55:49.230Z,98634.34
2022-12-06T10:01:05.720Z,98628.09
2022-12-06T10:06:14.429Z,98630.63
2022-12-06T10:11:33.551Z,98628.69
2022-12-06T10:16:51.125Z,98623.66
2022-12-06T10:22:07.182Z,98622.81
2022-12-06T10:27:12.921Z,98632.41
2022-12-06T10:32:19.204Z,98636.66
2022-12-06T10:37:36.302Z,98638.28
2022-12-06T10:42:46.103Z,98631.09
2022-12-06T10:47:48.921Z,98624.75
2022-12-06T10:53:01.643Z,98622.72
2022-12-06T10:58:15.534Z,98616.75
2022-12-06T11:03:22.328Z,98608.00
2022-12-06T11:08:31.140Z,98612.84
2022-12-06T11:13:41.238Z,98616.25
2022-12-06T11:18:45.744Z,98608.50
2022-12-06T11:23:54.620Z,98607.19
2022-12-06T11:29:06.243Z,98603.22
2022-12-06T11:34:15.786Z,98598.56
2022-12-06T11:39:19.306Z,98590.09
2022-12-06T11:44:27.556Z,98586.69
2022-12-06T11:49:35.437Z,98583.03
2022-12-06T11:54:44.642Z,98580.09
2022-12-06T12:00:12.350Z,98583.47
2022-12-06T12:05:20.919Z,98582.78
2022-12-06T12:10:32.656Z,98585.69
2022-12-06T12:15:37.622Z,98584.25
2022-12-06T12:20:47.356Z,98582.19
2022-12-06T12:26:01.764Z,98575.13
2022-12-06T12:31:17.572Z,98574.88
2022-12-06T12:36:26.722Z,98578.44
2022-12-06T12:41:33.964Z,98574.78
2022-12-06T12:46:39.195Z,98586.78
2022-12-06T12:51:48.074Z,98570.44
2022-12-06T12:56:52.988Z,98562.91
2022-12-06T13:02:03.057Z,98559.59
2022-12-06T13:07:08.976Z,98557.63
2022-12-06T13:12:16.196Z,98566.06
2022-12-06T13:17:24.609Z,98563.94
2022-12-06T13:22:30.662Z,98563.00
2022-12-06T13:27:37.949Z,98559.59
2022-12-06T13:32:46.534Z,98565.88
2022-12-06T13:37:54.928Z,98560.59
2022-12-06T13:42:59.317Z,98577.53
2022-12-06T13:48:03.473Z,98571.16
2022-12-06T13:53:06.302Z,98570.31
2022-12-06T13:59:00.953Z,98566.63
2022-12-06T14:09:42.957Z,98563.50
2022-12-06T14:14:56.341Z,98566.47
2022-12-06T14:20:01.624Z,98569.09
2022-12-06T14:25:08.618Z,98560.44
2022-12-06T14:30:25.449Z,98565.34
2022-12-06T14:35:35.638Z,98568.09
2022-12-06T14:40:55.771Z,98569.19
2022-12-06T14:46:01.338Z,98571.91
2022-12-06T14:51:06.266Z,98562.28
2022-12-06T14:56:23.313Z,98565.03
2022-12-06T15:01:28.977Z,98559.84
2022-12-06T15:06:36.541Z,98559.06
2022-12-06T15:11:58.584Z,98557.31
2022-12-06T15:17:04.293Z,98552.97
2022-12-06T15:22:22.939Z,98558.31
2022-12-06T15:27:28.589Z,98558.38
2022-12-06T15:32:34.212Z,98561.28
2022-12-06T15:37:39.927Z,98563.13
2022-12-06T15:42:44.092Z,98559.63
2022-12-06T15:47:48.118Z,98558.81
2022-12-06T15:52:52.184Z,98555.31
2022-12-06T15:57:55.163Z,98555.31
2022-12-06T16:02:58.012Z,98552.94
2022-12-06T16:08:02.239Z,98564.13
2022-12-06T16:13:23.711Z,98555.31
2022-12-06T16:18:26.661Z,98559.75
2022-12-06T16:24:12.425Z,98563.31
2022-12-06T16:29:14.266Z,98558.03
2022-12-06T16:34:17.386Z,98549.38
2022-12-06T16:39:21.524Z,98555.72
2022-12-06T16:44:24.604Z,98554.28
2022-12-06T16:49:46.925Z,98548.31
2022-12-06T16:54:51.859Z,98556.31
2022-12-06T16:59:54.635Z,98551.88
2022-12-06T17:04:58.900Z,98543.06
2022-12-06T17:10:03.700Z,98550.00
2022-12-06T17:15:08.757Z,98557.69
2022-12-06T17:20:14.249Z,98557.56
2022-12-06T17:25:18.472Z,98557.50
2022-12-06T17:30:23.262Z,98559.13
2022-12-06T17:35:26.022Z,98552.25
2022-12-06T17:40:30.241Z,98551.53
2022-12-06T17:45:33.095Z,98545.50
2022-12-06T17:50:38.060Z,98557.91
2022-12-06T17:55:42.130Z,98558.84
2022-12-06T18:00:45.064Z,98557.16
2022-12-06T18:05:48.566Z,98567.66
2022-12-06T18:10:59.135Z,98565.97
2022-12-06T18:16:02.116Z,98566.13
2022-12-06T18:21:06.225Z,98561.63
2022-12-06T18:26:13.299Z,98569.69
2022-12-06T18:31:16.281Z,98570.03
2022-12-06T18:36:20.523Z,98570.97
2022-12-06T18:41:25.532Z,98579.84
2022-12-06T18:46:28.488Z,98564.56
2022-12-06T18:51:35.106Z,98565.81
2022-12-06T18:56:39.877Z,98565.81
2022-12-06T19:01:43.196Z,98563.34
2022-12-06T19:06:46.086Z,98555.50
2022-12-06T19:11:50.318Z,98560.22
2022-12-06T19:16:53.639Z,98549.38
2022-12-06T19:21:56.985Z,98549.91
2022-12-06T19:27:01.816Z,98546.06
2022-12-06T19:32:04.708Z,98550.28
2022-12-06T19:37:07.571Z,98552.78
2022-12-06T19:42:29.346Z,98558.84
2022-12-06T19:47:32.191Z,98556.47
2022-12-06T19:52:35.025Z,98559.09
2022-12-06T19:57:39.937Z,98567.66
2022-12-06T20:02:42.754Z,98569.47
2022-12-06T20:07:45.529Z,98575.66
2022-12-06T20:12:49.782Z,98572.09
2022-12-06T20:17:52.576Z,98567.50
2022-12-06T20:22:55.400Z,98572.56
2022-12-06T20:28:02.407Z,98564.50
2022-12-06T20:33:04.984Z,98566.91
2022-12-06T20:38:07.753Z,98562.50
2022-12-06T20:43:11.966Z,98558.16
2022-12-06T20:48:15.116Z,98562.34
2022-12-06T20:53:17.958Z,98569.13
2022-12-06T20:58:22.194Z,98561.41
2022-12-06T21:03:25.261Z,98545.47
2022-12-06T21:08:28.551Z,98542.84
2022-12-06T21:13:33.382Z,98531.34
2022-12-06T21:18:36.888Z,98541.00
2022-12-06T21:23:40.703Z,98534.84
2022-12-06T21:28:44.829Z,98534.75
2022-12-06T21:33:47.745Z,98527.78
2022-12-06T21:38:50.925Z,98528.72
2022-12-06T21:43:55.381Z,98525.09
2022-12-06T21:49:00.558Z,98525.09
2022-12-06T21:54:03.441Z,98526.78
2022-12-06T21:59:07.713Z,98526.63
2022-12-06T22:04:10.537Z,98532.56
2022-12-06T22:09:13.324Z,98541.97
2022-12-06T22:14:17.807Z,98533.09
2022-12-06T22:19:20.843Z,98532.09
2022-12-06T22:24:24.975Z,98528.53
2022-12-06T22:29:29.308Z,98538.13
2022-12-06T22:34:32.680Z,98541.44
2022-12-06T22:39:35.437Z,98537.88
2022-12-06T22:44:39.606Z,98544.84
2022-12-06T22:49:42.417Z,98534.25
2022-12-06T22:54:45.225Z,98531.44
2022-12-06T22:59:49.317Z,98540.09
2022-12-06T23:04:52.044Z,98537.41
2022-12-06T23:09:54.832Z,98530.28
2022-12-06T23:14:59.585Z,98521.47
2022-12-06T23:20:02.581Z,98523.31
2022-12-06T23:25:06.627Z,98515.34
2022-12-06T23:30:11.979Z,98512.63
2022-12-06T23:35:14.902Z,98512.72
2022-12-06T23:40:17.742Z,98512.63
2022-12-06T23:45:21.816Z,98501.41
2022-12-06T23:50:24.597Z,98491.81
2022-12-06T23:55:27.380Z,98490.06
